Bitflower — SBJE — position and weather

sailwx.info

Track history (hours):
 
Tides and Currents Weather Stations Pressure Air Temp Water Temp Dewpoint Dewpoint Depression Visibility Wind Speed Wind Dir Waves Ship Positions

Bitflower

Last reported at 2018-Feb-22 20:26 UTC. Time now 2018-Feb-22 20:37 UTC.
Position N 59°54' E 025°03'.

Length 116 m; draft 4.8 m.

Type: Ship. MMSI: 266009000.

Date/timePositionNaut miles runAvg speedWind from/ knotsBaromVisibWave heightAir tempDewpointWater temp
2018-Feb-22 20:26N 59°54' E 025°03'512.4
2018-Feb-22 20:00N 59°56' E 025°13'612.6
2018-Feb-22 19:30N 59°58' E 025°25'8 0.6
2018-Feb-22 04:23N 60°05' E 025°34'510.5
2018-Feb-22 03:57N 60°01' E 025°31'0 0.8
2018-Feb-22 03:30N 60°01' E 025°31'0 0.1
2018-Feb-22 02:55N 60°01' E 025°30'0 0.0
2018-Feb-22 02:29N 60°01' E 025°30'0 0.0
2018-Feb-22 01:19N 60°01' E 025°30'0 0.0
2018-Feb-21 23:29N 60°01' E 025°30'0 0.1
2018-Feb-21 23:00N 60°01' E 025°30'0 0.0
2018-Feb-21 22:24N 60°01' E 025°30'0 0.0
2018-Feb-21 21:23N 60°01' E 025°30'0 0.0
2018-Feb-21 19:05N 60°01' E 025°30'0 0.1
2018-Feb-21 18:58N 60°01' E 025°30'0 0.0
2018-Feb-21 18:28N 60°01' E 025°30'0 0.0
2018-Feb-21 17:55N 60°01' E 025°30'0 0.0
2018-Feb-21 17:11N 60°01' E 025°30'0 0.1
2018-Feb-21 16:22N 60°01' E 025°30'0 0.0
2018-Feb-21 16:00N 60°01' E 025°30'0 0.0
2018-Feb-21 13:38N 60°01' E 025°30'0 0.1
2018-Feb-21 13:26N 60°01' E 025°30'0 0.1
2018-Feb-21 12:59N 60°01' E 025°30'0 0.0
2018-Feb-21 12:29N 60°01' E 025°30'0 0.0
2018-Feb-21 10:34N 60°01' E 025°31'0 4.7
2018-Feb-21 10:30N 60°00' E 025°30'511.0
2018-Feb-21 10:00N 59°58' E 025°21'611.9
2018-Feb-21 09:28N 59°55' E 025°09'712.1
2018-Feb-21 08:53N 59°53' E 024°55'512.3
2018-Feb-21 08:30N 59°52' E 024°46'612.0
2018-Feb-21 08:01N 59°50' E 024°35'611.8
2018-Feb-21 07:31N 59°49' E 024°23'811.7
2018-Feb-21 06:48N 59°47' E 024°08'412.1
2018-Feb-21 06:30N 59°46' E 024°01'611.8
2018-Feb-21 06:00N 59°44' E 023°49'511.0
2018-Feb-21 05:30N 59°43' E 023°39'510.7
2018-Feb-21 05:00N 59°41' E 023°29'510.6
2018-Feb-21 04:30N 59°41' E 023°18'611.1
2018-Feb-21 04:00N 59°40' E 023°07'611.1
2018-Feb-21 03:30N 59°40' E 022°56'510.7
2018-Feb-21 03:00N 59°39' E 022°46'2610.9
2018-Feb-21 00:39N 59°37' E 021°55'211.0
2018-Feb-21 00:30N 59°37' E 021°52'711.4
2018-Feb-20 23:51N 59°36' E 021°37'411.2
2018-Feb-20 23:30N 59°36' E 021°30'5 9.9
2018-Feb-20 22:59N 59°40' E 021°23'511.3
2018-Feb-20 22:30N 59°45' E 021°21'5 9.8
2018-Feb-20 22:00N 59°50' E 021°23'611.6
2018-Feb-20 21:30N 59°53' E 021°32'611.6
2018-Feb-20 21:00N 59°57' E 021°41'611.3
2018-Feb-20 20:30N 60°03' E 021°41'4 0.2
2018-Feb-20 01:23N 60°07' E 021°41'511.2
2018-Feb-20 00:57N 60°02' E 021°41'511.0
2018-Feb-20 00:31N 59°57' E 021°41'611.3
2018-Feb-20 00:01N 59°54' E 021°33'611.2
2018-Feb-19 23:30N 59°50' E 021°24'5 9.9
2018-Feb-19 23:00N 59°45' E 021°21'5 9.9
2018-Feb-19 22:31N 59°41' E 021°21'510.3
2018-Feb-19 22:00N 59°36' E 021°27'510.8
2018-Feb-19 21:30N 59°36' E 021°37'510.9
2018-Feb-19 21:01N 59°37' E 021°48'510.7
2018-Feb-19 20:31N 59°37' E 021°58'610.9
2018-Feb-19 20:00N 59°37' E 022°09'2711.1
2018-Feb-19 17:33N 59°40' E 023°03'111.8
2018-Feb-19 17:29N 59°40' E 023°04'611.9
2018-Feb-19 17:00N 59°41' E 023°16'611.8
2018-Feb-19 16:30N 59°42' E 023°27'612.1
2018-Feb-19 16:00N 59°43' E 023°39'611.9
2018-Feb-19 15:30N 59°44' E 023°50'611.5
2018-Feb-19 14:57N 59°46' E 024°02'1113.2
2018-Feb-19 14:09N 59°49' E 024°23'411.4
2018-Feb-19 13:49N 59°50' E 024°30'3 9.4
2018-Feb-19 13:30N 59°51' E 024°36'611.8
2018-Feb-19 13:00N 59°52' E 024°47'811.9
2018-Feb-19 12:19N 59°54' E 025°03'412.2
2018-Feb-19 12:00N 59°55' E 025°10'612.3
2018-Feb-19 11:30N 59°57' E 025°22'611.9
2018-Feb-19 11:00N 60°00' E 025°32'4 0.3
2018-Feb-18 20:38N 60°04' E 025°34'210.3
2018-Feb-18 20:29N 60°03' E 025°33'2 2.1
2018-Feb-18 19:18N 60°01' E 025°30'0 0.1
2018-Feb-18 18:59N 60°01' E 025°30'0 0.4
2018-Feb-18 18:29N 60°01' E 025°31'0 0.0
2018-Feb-18 17:59N 60°01' E 025°31'0 0.0
2018-Feb-18 17:29N 60°01' E 025°31'0 0.3
2018-Feb-18 16:35N 60°01' E 025°30'1 6.2
2018-Feb-18 16:29N 60°00' E 025°30'1 1.5
2018-Feb-18 15:59N 59°59' E 025°29'0 0.3
2018-Feb-18 15:23N 59°60' E 025°30'0 0.3
2018-Feb-18 14:59N 59°60' E 025°30'0 0.3
2018-Feb-18 14:26N 59°60' E 025°30'0 0.2
2018-Feb-18 14:00N 59°60' E 025°30'0 0.2
2018-Feb-18 13:27N 59°60' E 025°30'0 0.2
2018-Feb-18 12:57N 60°00' E 025°30'0 0.1
2018-Feb-18 12:30N 60°00' E 025°30'0 0.1
2018-Feb-18 12:00N 60°00' E 025°30'0 0.0
2018-Feb-18 11:30N 60°00' E 025°30'0 0.0
2018-Feb-18 09:25N 60°00' E 025°30'0 0.1
2018-Feb-18 09:00N 60°00' E 025°30'0 0.1
2018-Feb-18 08:22N 60°00' E 025°30'0 0.0
2018-Feb-18 07:57N 60°00' E 025°30'0 0.1
2018-Feb-18 07:28N 60°00' E 025°30'0 0.1
2018-Feb-18 07:00N 60°00' E 025°30'0 0.1
2018-Feb-18 06:22N 60°00' E 025°30'0 0.4
2018-Feb-18 05:58N 60°00' E 025°31'0 0.9
2018-Feb-18 05:30N 60°00' E 025°30'0 0.2
2018-Feb-18 03:56N 60°00' E 025°30'0 0.0
2018-Feb-18 03:13N 60°00' E 025°31'0 0.1
2018-Feb-18 02:49N 60°00' E 025°30'0 0.0
2018-Feb-18 02:28N 60°00' E 025°30'0 0.2
2018-Feb-18 01:55N 60°00' E 025°31'0 0.0
2018-Feb-18 01:28N 60°00' E 025°31'0 0.0
2018-Feb-18 00:52N 60°00' E 025°31'0 0.0
2018-Feb-18 00:29N 60°00' E 025°31'0 0.0
2018-Feb-17 23:59N 60°00' E 025°31'0 0.0
2018-Feb-17 23:11N 60°00' E 025°31'0 0.2
2018-Feb-17 22:53N 60°00' E 025°31'2 4.5
2018-Feb-17 22:26N 59°60' E 025°27'511.2
2018-Feb-17 22:00N 59°57' E 025°18'611.5
2018-Feb-17 21:30N 59°55' E 025°08'611.5
2018-Feb-17 20:59N 59°53' E 024°56'511.6
2018-Feb-17 20:30N 59°52' E 024°46'611.2
2018-Feb-17 20:00N 59°51' E 024°35'611.8
2018-Feb-17 19:30N 59°49' E 024°24'810.6
2018-Feb-17 18:43N 59°47' E 024°08'210.9
2018-Feb-17 18:30N 59°46' E 024°03'710.9
2018-Feb-17 17:53N 59°44' E 023°50'411.1
2018-Feb-17 17:30N 59°43' E 023°42'511.0
2018-Feb-17 17:00N 59°42' E 023°32'510.8
2018-Feb-17 16:30N 59°41' E 023°21'611.2
2018-Feb-17 15:59N 59°40' E 023°10'611.4
2018-Feb-17 15:30N 59°40' E 022°59'3311.4
2018-Feb-17 12:34N 59°37' E 021°53'111.6
2018-Feb-17 12:30N 59°37' E 021°52'611.5
2018-Feb-17 11:57N 59°37' E 021°39'511.5
2018-Feb-17 11:30N 59°37' E 021°29'611.5
2018-Feb-17 11:00N 59°41' E 021°21'611.6
2018-Feb-17 10:30N 59°47' E 021°21'611.5
2018-Feb-17 10:00N 59°52' E 021°26'612.3
2018-Feb-17 09:30N 59°55' E 021°36'611.8
2018-Feb-17 09:00N 60°00' E 021°42'6 0.3
2018-Feb-16 12:02N 60°06' E 021°42'411.0
2018-Feb-16 11:42N 60°02' E 021°41'211.0
2018-Feb-16 11:30N 60°00' E 021°42'510.8
2018-Feb-16 11:00N 59°55' E 021°38'611.1
2018-Feb-16 10:31N 59°52' E 021°29'510.7
2018-Feb-16 10:00N 59°49' E 021°21'5 9.4
2018-Feb-16 09:31N 59°44' E 021°20'4 7.3
2018-Feb-16 09:01N 59°41' E 021°22'4 7.9
2018-Feb-16 08:30N 59°37' E 021°25'4 7.6
2018-Feb-16 08:00N 59°36' E 021°32'4 9.0
2018-Feb-16 07:30N 59°36' E 021°41'5 9.3
2018-Feb-16 07:00N 59°36' E 021°50'5 9.5
2018-Feb-16 06:30N 59°37' E 021°60'510.8
2018-Feb-16 06:00N 59°37' E 022°10'2712.1
2018-Feb-16 03:49N 59°40' E 023°02'412.1
2018-Feb-16 03:30N 59°40' E 023°10'612.0
2018-Feb-16 03:00N 59°41' E 023°22'612.4
2018-Feb-16 02:30N 59°42' E 023°34'612.5
2018-Feb-16 02:00N 59°44' E 023°46'612.3
2018-Feb-16 01:30N 59°45' E 023°57'612.7
2018-Feb-16 01:00N 59°47' E 024°10'916.4
2018-Feb-16 00:28N 59°50' E 024°26'4 8.6
2018-Feb-16 00:00N 59°51' E 024°34'612.2
2018-Feb-15 23:30N 59°53' E 024°45'812.4
2018-Feb-15 22:50N 59°55' E 025°01'412.1
2018-Feb-15 22:30N 59°55' E 025°09'612.0
2018-Feb-15 22:00N 59°57' E 025°21'611.9
2018-Feb-15 21:29N 59°60' E 025°32'  
2018-Feb-13 09:16N 60°16' E 025°32'0 0.0
2018-Feb-13 08:58N 60°16' E 025°32'0 0.0
2018-Feb-13 08:25N 60°16' E 025°32'0 0.0
2018-Feb-13 07:55N 60°16' E 025°32'0 0.0
2018-Feb-13 07:19N 60°16' E 025°32'0 0.0
2018-Feb-13 06:58N 60°16' E 025°32'0 0.0
2018-Feb-13 06:19N 60°16' E 025°32'0 0.0
2018-Feb-13 05:55N 60°16' E 025°32'0 0.0
2018-Feb-13 05:22N 60°16' E 025°32'0 0.0
2018-Feb-13 04:34N 60°16' E 025°32'0 0.0
2018-Feb-13 04:13N 60°16' E 025°32'0 0.0
2018-Feb-13 03:49N 60°16' E 025°32'0 0.0
2018-Feb-13 03:25N 60°16' E 025°32'0 0.0
2018-Feb-13 02:55N 60°16' E 025°32'0 0.0
2018-Feb-13 01:49N 60°16' E 025°32'0 0.0
2018-Feb-13 01:25N 60°16' E 025°32'0 0.0
2018-Feb-13 00:49N 60°16' E 025°32'0 0.0
2018-Feb-13 00:28N 60°16' E 025°32'0 0.0
2018-Feb-12 23:46N 60°16' E 025°32'0 0.0
2018-Feb-12 23:19N 60°16' E 025°32'0 0.0
2018-Feb-12 22:49N 60°16' E 025°32'0 0.0
2018-Feb-12 22:10N 60°16' E 025°32'0 0.0
2018-Feb-12 21:13N 60°16' E 025°32'0 0.0
2018-Feb-12 20:52N 60°16' E 025°32'  
Track history (hours):
 
Tides and Currents Weather Stations Pressure Air Temp Water Temp Dewpoint Dewpoint Depression Visibility Wind Speed Wind Dir Waves Ship Positions

Bitflower

Last reported at 2018-Feb-22 20:26 UTC. Time now 2018-Feb-22 20:37 UTC.
Position N 59°54' E 025°03'.

Length 116 m; draft 4.8 m.

Type: Ship. MMSI: 266009000.

Date/timePositionNaut miles runAvg speedWind from/ knotsBaromVisibWave heightAir tempDewpointWater temp
2018-Feb-22 20:26N 59°54' E 025°03'512.4
2018-Feb-22 20:00N 59°56' E 025°13'612.6
2018-Feb-22 19:30N 59°58' E 025°25'8 0.6
2018-Feb-22 04:23N 60°05' E 025°34'510.5
2018-Feb-22 03:57N 60°01' E 025°31'0 0.8
2018-Feb-22 03:30N 60°01' E 025°31'0 0.1
2018-Feb-22 02:55N 60°01' E 025°30'0 0.0
2018-Feb-22 02:29N 60°01' E 025°30'0 0.0
2018-Feb-22 01:19N 60°01' E 025°30'0 0.0
2018-Feb-21 23:29N 60°01' E 025°30'0 0.1
2018-Feb-21 23:00N 60°01' E 025°30'0 0.0
2018-Feb-21 22:24N 60°01' E 025°30'0 0.0
2018-Feb-21 21:23N 60°01' E 025°30'0 0.0
2018-Feb-21 19:05N 60°01' E 025°30'0 0.1
2018-Feb-21 18:58N 60°01' E 025°30'0 0.0
2018-Feb-21 18:28N 60°01' E 025°30'0 0.0
2018-Feb-21 17:55N 60°01' E 025°30'0 0.0
2018-Feb-21 17:11N 60°01' E 025°30'0 0.1
2018-Feb-21 16:22N 60°01' E 025°30'0 0.0
2018-Feb-21 16:00N 60°01' E 025°30'0 0.0
2018-Feb-21 13:38N 60°01' E 025°30'0 0.1
2018-Feb-21 13:26N 60°01' E 025°30'0 0.1
2018-Feb-21 12:59N 60°01' E 025°30'0 0.0
2018-Feb-21 12:29N 60°01' E 025°30'0 0.0
2018-Feb-21 10:34N 60°01' E 025°31'0 4.7
2018-Feb-21 10:30N 60°00' E 025°30'511.0
2018-Feb-21 10:00N 59°58' E 025°21'611.9
2018-Feb-21 09:28N 59°55' E 025°09'712.1
2018-Feb-21 08:53N 59°53' E 024°55'512.3
2018-Feb-21 08:30N 59°52' E 024°46'612.0
2018-Feb-21 08:01N 59°50' E 024°35'611.8
2018-Feb-21 07:31N 59°49' E 024°23'811.7
2018-Feb-21 06:48N 59°47' E 024°08'412.1
2018-Feb-21 06:30N 59°46' E 024°01'611.8
2018-Feb-21 06:00N 59°44' E 023°49'511.0
2018-Feb-21 05:30N 59°43' E 023°39'510.7
2018-Feb-21 05:00N 59°41' E 023°29'510.6
2018-Feb-21 04:30N 59°41' E 023°18'611.1
2018-Feb-21 04:00N 59°40' E 023°07'611.1
2018-Feb-21 03:30N 59°40' E 022°56'510.7
2018-Feb-21 03:00N 59°39' E 022°46'2610.9
2018-Feb-21 00:39N 59°37' E 021°55'211.0
2018-Feb-21 00:30N 59°37' E 021°52'711.4
2018-Feb-20 23:51N 59°36' E 021°37'411.2
2018-Feb-20 23:30N 59°36' E 021°30'5 9.9
2018-Feb-20 22:59N 59°40' E 021°23'511.3
2018-Feb-20 22:30N 59°45' E 021°21'5 9.8
2018-Feb-20 22:00N 59°50' E 021°23'611.6
2018-Feb-20 21:30N 59°53' E 021°32'611.6
2018-Feb-20 21:00N 59°57' E 021°41'611.3
2018-Feb-20 20:30N 60°03' E 021°41'4 0.2
2018-Feb-20 01:23N 60°07' E 021°41'511.2
2018-Feb-20 00:57N 60°02' E 021°41'511.0
2018-Feb-20 00:31N 59°57' E 021°41'611.3
2018-Feb-20 00:01N 59°54' E 021°33'611.2
2018-Feb-19 23:30N 59°50' E 021°24'5 9.9
2018-Feb-19 23:00N 59°45' E 021°21'5 9.9
2018-Feb-19 22:31N 59°41' E 021°21'510.3
2018-Feb-19 22:00N 59°36' E 021°27'510.8
2018-Feb-19 21:30N 59°36' E 021°37'510.9
2018-Feb-19 21:01N 59°37' E 021°48'510.7
2018-Feb-19 20:31N 59°37' E 021°58'610.9
2018-Feb-19 20:00N 59°37' E 022°09'2711.1
2018-Feb-19 17:33N 59°40' E 023°03'111.8
2018-Feb-19 17:29N 59°40' E 023°04'611.9
2018-Feb-19 17:00N 59°41' E 023°16'611.8
2018-Feb-19 16:30N 59°42' E 023°27'612.1
2018-Feb-19 16:00N 59°43' E 023°39'611.9
2018-Feb-19 15:30N 59°44' E 023°50'611.5
2018-Feb-19 14:57N 59°46' E 024°02'1113.2
2018-Feb-19 14:09N 59°49' E 024°23'411.4
2018-Feb-19 13:49N 59°50' E 024°30'3 9.4
2018-Feb-19 13:30N 59°51' E 024°36'611.8
2018-Feb-19 13:00N 59°52' E 024°47'811.9
2018-Feb-19 12:19N 59°54' E 025°03'412.2
2018-Feb-19 12:00N 59°55' E 025°10'612.3
2018-Feb-19 11:30N 59°57' E 025°22'611.9
2018-Feb-19 11:00N 60°00' E 025°32'4 0.3
2018-Feb-18 20:38N 60°04' E 025°34'210.3
2018-Feb-18 20:29N 60°03' E 025°33'2 2.1
2018-Feb-18 19:18N 60°01' E 025°30'0 0.1
2018-Feb-18 18:59N 60°01' E 025°30'0 0.4
2018-Feb-18 18:29N 60°01' E 025°31'0 0.0
2018-Feb-18 17:59N 60°01' E 025°31'0 0.0
2018-Feb-18 17:29N 60°01' E 025°31'0 0.3
2018-Feb-18 16:35N 60°01' E 025°30'1 6.2
2018-Feb-18 16:29N 60°00' E 025°30'1 1.5
2018-Feb-18 15:59N 59°59' E 025°29'0 0.3
2018-Feb-18 15:23N 59°60' E 025°30'0 0.3
2018-Feb-18 14:59N 59°60' E 025°30'0 0.3
2018-Feb-18 14:26N 59°60' E 025°30'0 0.2
2018-Feb-18 14:00N 59°60' E 025°30'0 0.2
2018-Feb-18 13:27N 59°60' E 025°30'0 0.2
2018-Feb-18 12:57N 60°00' E 025°30'0 0.1
2018-Feb-18 12:30N 60°00' E 025°30'0 0.1
2018-Feb-18 12:00N 60°00' E 025°30'0 0.0
2018-Feb-18 11:30N 60°00' E 025°30'0 0.0
2018-Feb-18 09:25N 60°00' E 025°30'0 0.1
2018-Feb-18 09:00N 60°00' E 025°30'0 0.1
2018-Feb-18 08:22N 60°00' E 025°30'0 0.0
2018-Feb-18 07:57N 60°00' E 025°30'0 0.1
2018-Feb-18 07:28N 60°00' E 025°30'0 0.1
2018-Feb-18 07:00N 60°00' E 025°30'0 0.1
2018-Feb-18 06:22N 60°00' E 025°30'0 0.4
2018-Feb-18 05:58N 60°00' E 025°31'0 0.9
2018-Feb-18 05:30N 60°00' E 025°30'0 0.2
2018-Feb-18 03:56N 60°00' E 025°30'0 0.0
2018-Feb-18 03:13N 60°00' E 025°31'0 0.1
2018-Feb-18 02:49N 60°00' E 025°30'0 0.0
2018-Feb-18 02:28N 60°00' E 025°30'0 0.2
2018-Feb-18 01:55N 60°00' E 025°31'0 0.0
2018-Feb-18 01:28N 60°00' E 025°31'0 0.0
2018-Feb-18 00:52N 60°00' E 025°31'0 0.0
2018-Feb-18 00:29N 60°00' E 025°31'0 0.0
2018-Feb-17 23:59N 60°00' E 025°31'0 0.0
2018-Feb-17 23:11N 60°00' E 025°31'0 0.2
2018-Feb-17 22:53N 60°00' E 025°31'2 4.5
2018-Feb-17 22:26N 59°60' E 025°27'511.2
2018-Feb-17 22:00N 59°57' E 025°18'611.5
2018-Feb-17 21:30N 59°55' E 025°08'611.5
2018-Feb-17 20:59N 59°53' E 024°56'511.6
2018-Feb-17 20:30N 59°52' E 024°46'611.2
2018-Feb-17 20:00N 59°51' E 024°35'611.8
2018-Feb-17 19:30N 59°49' E 024°24'810.6
2018-Feb-17 18:43N 59°47' E 024°08'210.9
2018-Feb-17 18:30N 59°46' E 024°03'710.9
2018-Feb-17 17:53N 59°44' E 023°50'411.1
2018-Feb-17 17:30N 59°43' E 023°42'511.0
2018-Feb-17 17:00N 59°42' E 023°32'510.8
2018-Feb-17 16:30N 59°41' E 023°21'611.2
2018-Feb-17 15:59N 59°40' E 023°10'611.4
2018-Feb-17 15:30N 59°40' E 022°59'3311.4
2018-Feb-17 12:34N 59°37' E 021°53'111.6
2018-Feb-17 12:30N 59°37' E 021°52'611.5
2018-Feb-17 11:57N 59°37' E 021°39'511.5
2018-Feb-17 11:30N 59°37' E 021°29'611.5
2018-Feb-17 11:00N 59°41' E 021°21'611.6
2018-Feb-17 10:30N 59°47' E 021°21'611.5
2018-Feb-17 10:00N 59°52' E 021°26'612.3
2018-Feb-17 09:30N 59°55' E 021°36'611.8
2018-Feb-17 09:00N 60°00' E 021°42'6 0.3
2018-Feb-16 12:02N 60°06' E 021°42'411.0
2018-Feb-16 11:42N 60°02' E 021°41'211.0
2018-Feb-16 11:30N 60°00' E 021°42'510.8
2018-Feb-16 11:00N 59°55' E 021°38'611.1
2018-Feb-16 10:31N 59°52' E 021°29'510.7
2018-Feb-16 10:00N 59°49' E 021°21'5 9.4
2018-Feb-16 09:31N 59°44' E 021°20'4 7.3
2018-Feb-16 09:01N 59°41' E 021°22'4 7.9
2018-Feb-16 08:30N 59°37' E 021°25'4 7.6
2018-Feb-16 08:00N 59°36' E 021°32'4 9.0
2018-Feb-16 07:30N 59°36' E 021°41'5 9.3
2018-Feb-16 07:00N 59°36' E 021°50'5 9.5
2018-Feb-16 06:30N 59°37' E 021°60'510.8
2018-Feb-16 06:00N 59°37' E 022°10'2712.1
2018-Feb-16 03:49N 59°40' E 023°02'412.1
2018-Feb-16 03:30N 59°40' E 023°10'612.0
2018-Feb-16 03:00N 59°41' E 023°22'612.4
2018-Feb-16 02:30N 59°42' E 023°34'612.5
2018-Feb-16 02:00N 59°44' E 023°46'612.3
2018-Feb-16 01:30N 59°45' E 023°57'612.7
2018-Feb-16 01:00N 59°47' E 024°10'916.4
2018-Feb-16 00:28N 59°50' E 024°26'4 8.6
2018-Feb-16 00:00N 59°51' E 024°34'612.2
2018-Feb-15 23:30N 59°53' E 024°45'812.4
2018-Feb-15 22:50N 59°55' E 025°01'412.1
2018-Feb-15 22:30N 59°55' E 025°09'612.0
2018-Feb-15 22:00N 59°57' E 025°21'611.9
2018-Feb-15 21:29N 59°60' E 025°32'  
2018-Feb-13 09:16N 60°16' E 025°32'0 0.0
2018-Feb-13 08:58N 60°16' E 025°32'0 0.0
2018-Feb-13 08:25N 60°16' E 025°32'0 0.0
2018-Feb-13 07:55N 60°16' E 025°32'0 0.0
2018-Feb-13 07:19N 60°16' E 025°32'0 0.0
2018-Feb-13 06:58N 60°16' E 025°32'0 0.0
2018-Feb-13 06:19N 60°16' E 025°32'0 0.0
2018-Feb-13 05:55N 60°16' E 025°32'0 0.0
2018-Feb-13 05:22N 60°16' E 025°32'0 0.0
2018-Feb-13 04:34N 60°16' E 025°32'0 0.0
2018-Feb-13 04:13N 60°16' E 025°32'0 0.0
2018-Feb-13 03:49N 60°16' E 025°32'0 0.0
2018-Feb-13 03:25N 60°16' E 025°32'0 0.0
2018-Feb-13 02:55N 60°16' E 025°32'0 0.0
2018-Feb-13 01:49N 60°16' E 025°32'0 0.0
2018-Feb-13 01:25N 60°16' E 025°32'0 0.0
2018-Feb-13 00:49N 60°16' E 025°32'0 0.0
2018-Feb-13 00:28N 60°16' E 025°32'0 0.0
2018-Feb-12 23:46N 60°16' E 025°32'0 0.0
2018-Feb-12 23:19N 60°16' E 025°32'0 0.0
2018-Feb-12 22:49N 60°16' E 025°32'0 0.0
2018-Feb-12 22:10N 60°16' E 025°32'0 0.0
2018-Feb-12 21:13N 60°16' E 025°32'0 0.0
2018-Feb-12 20:52N 60°16' E 025°32'  

Dump ship's entire track history